KABI/ABI METAR and TAF weather

Enter ICAO airport designator
Station Type Date Time Source
KABI METAR 2022/11/30 10:52 UTC NOAA

KABI 301052Z 01008KT 10SM CLR M01/M05 A3031 RMK AO2 SLP257 T10061050 $


Station Type Date Time Source
KABI Decoded METAR 2022/11/30 10:52 UTC NOAA

ABILENE REGIONAL AIRPORT, TX, United States (KABI) 32-25N 099-41W 548M
Nov 30, 2022 - 05:52 AM EST / 2022.11.30 1052 UTC
Wind: from the N (010 degrees) at 9 MPH (8 KT):0
Visibility: 10 mile(s):0
Sky conditions: clear
Temperature: 30.9 F (-0.6 C)
Windchill: 23 F (-5 C):1
Dew Point: 23.0 F (-5.0 C)
Relative Humidity: 72%
Pressure (altimeter): 30.31 in. Hg (1026 hPa)
ob: KABI 301052Z 01008KT 10SM CLR M01/M05 A3031 RMK AO2 SLP257 T10061050
cycle: 11

Station Type Date Time Source
KABI TAF 2022/11/30 12:22 UTC NOAA

TAF KABI 301120Z 3012/0112 02010G18KT P6SM SKC
FM301700 06008KT P6SM SKC
FM010100 14005KT P6SM SCT250

Example: see airport list